This is the latest recevied weather packets stored in our database for station/object N1MCJ. If no packets are shown the sender has not sent any weather packets the latest 10 day(s).
| Time | Temp. | Humidity | Pressure | Rain* | Wind** | Luminosity | Snow |
|---|---|---|---|---|---|---|---|
| 1777578499 | 11.11° C | 96% | 997.8 hPa | 0 mm | - | 29 W/m² | - |
| 1777577597 | 11.11° C | 96% | 997.6 hPa | 0 mm | - | 36 W/m² | - |
| 1777576693 | 11.11° C | 96% | 997.7 hPa | 0 mm | - | 61 W/m² | - |
| 1777575790 | 11.11° C | 95% | 997.6 hPa | 0 mm | - | 39 W/m² | - |
| 1777574885 | 11.67° C | 94% | 998.1 hPa | 0 mm | - | 30 W/m² | - |
| 1777573980 | 11.67° C | 93% | 998.1 hPa | 0 mm | - | 42 W/m² | - |
| 1777573079 | 11.67° C | 93% | 997.9 hPa | 0 mm | - | 49 W/m² | - |
| 1777572178 | 11.67° C | 94% | 997.9 hPa | 0 mm | - | 45 W/m² | - |
| 1777571278 | 11.11° C | 95% | 997.8 hPa | 0 mm | - | 43 W/m² | - |
| 1777570373 | 11.11° C | 98% | 997.8 hPa | 0 mm | - | 66 W/m² | - |
| 1777569471 | 10.56° C | 99% | 997.5 hPa | 0 mm | - | 195 W/m² | - |
| 1777568568 | 10° C | 99% | 998 hPa | 0 mm | - | 58 W/m² | - |
| 1777567664 | 10° C | 99% | 998.1 hPa | 0 mm | - | 58 W/m² | - |
| 1777566763 | 9.44° C | 99% | 998.4 hPa | 0 mm | - | 54 W/m² | - |
| 1777565859 | 10° C | 99% | 998.5 hPa | 0 mm | - | 58 W/m² | - |
| 1777564954 | 10° C | 99% | 998.8 hPa | 0 mm | - | 72 W/m² | - |
| 1777564053 | 9.44° C | 99% | 998.8 hPa | 0 mm | - | 49 W/m² | - |
| 1777563151 | 9.44° C | 99% | 998.8 hPa | 0 mm | - | 56 W/m² | - |
| 1777562248 | 9.44° C | 99% | 999 hPa | 0 mm | - | 76 W/m² | - |
| 1777561344 | 8.89° C | 99% | 999.1 hPa | 0 mm | - | 39 W/m² | - |
| 1777560443 | 8.89° C | 99% | 999 hPa | 0 mm | - | 31 W/m² | - |
| 1777559539 | 8.89° C | 99% | 998.8 hPa | 0 mm | - | 39 W/m² | - |
| 1777558639 | 8.89° C | 99% | 999 hPa | 0 mm | - | 21 W/m² | - |
| 1777557740 | 8.89° C | 99% | 999 hPa | 0 mm | - | 24 W/m² | - |
| 1777556835 | 8.89° C | 99% | 998.7 hPa | 0 mm | - | 28 W/m² | - |
* Rain latest hour (hover to see other rain measurements)
** Current wind speed in m/s (hover to see current wind gust speed)